createdAt,value
2023-03-26T00:01:46.812Z,85.06
2023-03-26T00:04:19.891Z,84.89
2023-03-26T00:06:49.384Z,84.89
2023-03-26T00:09:17.715Z,84.99
2023-03-26T00:11:47.284Z,85.03
2023-03-26T00:14:17.938Z,84.92
2023-03-26T00:16:47.811Z,85.03
2023-03-26T00:19:18.879Z,84.79
2023-03-26T00:21:48.486Z,84.97
2023-03-26T00:24:17.584Z,84.97
2023-03-26T00:26:55.363Z,84.47
2023-03-26T00:29:24.791Z,84.25
2023-03-26T00:31:53.247Z,84.23
2023-03-26T00:34:27.044Z,84.39
2023-03-26T00:36:55.242Z,84.24
2023-03-26T00:39:25.791Z,84.28
2023-03-26T00:41:55.618Z,84.09
2023-03-26T00:44:26.083Z,84.03
2023-03-26T00:46:55.080Z,83.41
2023-03-26T00:49:26.861Z,83.65
2023-03-26T00:51:55.954Z,83.27
2023-03-26T00:54:24.025Z,83.13
2023-03-26T00:56:58.196Z,82.96
2023-03-26T00:59:30.498Z,83.06
2023-03-26T01:01:58.727Z,83.41
2023-03-26T01:04:31.449Z,83.22
2023-03-26T01:07:09.045Z,82.81
2023-03-26T01:09:45.183Z,82.67
2023-03-26T01:12:20.825Z,82.50
2023-03-26T01:14:53.352Z,82.57
2023-03-26T01:17:22.143Z,82.58
2023-03-26T01:19:59.030Z,82.67
2023-03-26T01:22:27.519Z,82.99
2023-03-26T01:24:58.931Z,83.00
2023-03-26T01:27:42.680Z,83.15
2023-03-26T01:30:43.895Z,83.84
2023-03-26T01:33:21.643Z,84.22
2023-03-26T01:36:26.474Z,84.13
2023-03-26T01:39:00.894Z,84.28
2023-03-26T01:41:42.583Z,83.89
2023-03-26T01:44:21.427Z,83.82
2023-03-26T01:46:49.711Z,83.88
2023-03-26T01:49:20.016Z,83.42
2023-03-26T01:51:48.498Z,82.86
2023-03-26T01:54:19.681Z,82.70
2023-03-26T01:57:13.960Z,82.48
2023-03-26T02:00:25.202Z,82.24
2023-03-26T02:03:18.400Z,82.04
2023-03-26T02:06:00.621Z,82.11
2023-03-26T02:08:35.948Z,82.19
2023-03-26T02:11:11.471Z,81.99
2023-03-26T02:13:41.744Z,82.15
2023-03-26T02:16:16.900Z,82.09
2023-03-26T02:18:51.566Z,82.03
2023-03-26T02:21:21.867Z,81.96
2023-03-26T02:23:57.976Z,81.72
2023-03-26T02:26:26.268Z,81.29
2023-03-26T02:28:59.024Z,80.81
2023-03-26T02:31:30.680Z,80.24
2023-03-26T02:33:58.786Z,79.84
2023-03-26T02:36:28.163Z,79.38
2023-03-26T02:39:00.357Z,78.99
2023-03-26T02:41:31.704Z,78.76
2023-03-26T02:44:06.495Z,78.49
2023-03-26T02:47:00.755Z,78.46
2023-03-26T02:49:47.994Z,78.34
2023-03-26T02:52:22.806Z,78.16
2023-03-26T02:54:56.986Z,78.05
2023-03-26T02:57:26.767Z,77.75
2023-03-26T03:00:22.811Z,77.62
2023-03-26T03:03:13.008Z,77.20
2023-03-26T03:06:15.522Z,76.86
2023-03-26T03:08:50.028Z,76.41
2023-03-26T03:11:22.182Z,75.79
2023-03-26T03:13:51.301Z,75.73
2023-03-26T03:16:28.739Z,75.57
2023-03-26T03:18:58.717Z,75.17
2023-03-26T03:21:38.714Z,74.83
2023-03-26T03:24:11.746Z,74.49
2023-03-26T03:26:46.292Z,74.51
2023-03-26T03:29:28.717Z,74.32
2023-03-26T03:31:57.275Z,74.35
2023-03-26T03:34:45.860Z,74.11
2023-03-26T03:37:14.361Z,74.15
2023-03-26T03:39:46.904Z,74.22
2023-03-26T03:42:18.631Z,74.22
2023-03-26T03:44:49.437Z,74.04
2023-03-26T03:47:47.313Z,74.27
2023-03-26T03:50:17.392Z,74.22
2023-03-26T03:52:59.178Z,74.08
2023-03-26T03:55:27.989Z,73.91
2023-03-26T03:58:00.137Z,73.97
2023-03-26T04:00:30.759Z,73.87
2023-03-26T04:03:33.557Z,73.81
2023-03-26T04:06:08.680Z,73.62
2023-03-26T04:08:36.871Z,73.78
2023-03-26T04:11:09.418Z,73.79
2023-03-26T04:13:59.556Z,74.15
2023-03-26T04:16:49.046Z,74.32
2023-03-26T04:19:24.906Z,74.47
2023-03-26T04:21:53.231Z,74.43
2023-03-26T04:24:22.562Z,74.67
2023-03-26T04:27:11.988Z,74.62
2023-03-26T04:29:45.251Z,74.72
2023-03-26T04:32:26.518Z,74.61
2023-03-26T04:34:55.317Z,74.30
2023-03-26T04:37:34.669Z,74.40
2023-03-26T04:40:20.546Z,74.37
2023-03-26T04:43:06.616Z,74.04
2023-03-26T04:46:05.723Z,73.81
2023-03-26T04:48:38.859Z,73.40
2023-03-26T04:51:18.402Z,73.36
2023-03-26T04:53:53.245Z,73.34
2023-03-26T04:56:40.815Z,73.18
2023-03-26T04:59:38.347Z,73.34
2023-03-26T05:02:10.697Z,73.28
2023-03-26T05:04:51.128Z,73.41
2023-03-26T05:07:22.469Z,73.27
2023-03-26T05:09:57.876Z,73.25
2023-03-26T05:12:41.429Z,73.20
2023-03-26T05:15:13.734Z,73.10
2023-03-26T05:17:52.064Z,72.95
2023-03-26T05:20:43.860Z,72.60
2023-03-26T05:23:14.052Z,72.31
2023-03-26T05:25:47.996Z,72.58
2023-03-26T05:28:20.915Z,72.80
2023-03-26T05:30:55.570Z,73.08
2023-03-26T05:33:25.528Z,73.14
2023-03-26T05:36:28.497Z,73.20
2023-03-26T05:39:22.680Z,73.03
2023-03-26T05:42:17.207Z,72.00
2023-03-26T05:45:00.963Z,70.61
2023-03-26T05:47:29.870Z,69.69
2023-03-26T05:49:58.218Z,67.82
2023-03-26T05:52:28.634Z,66.61
2023-03-26T05:55:16.250Z,65.64
2023-03-26T05:58:11.047Z,64.44
2023-03-26T06:01:00.162Z,63.75
2023-03-26T06:03:35.638Z,62.56
2023-03-26T06:06:17.067Z,60.62
2023-03-26T06:09:02.382Z,60.06
2023-03-26T06:11:32.287Z,58.86
2023-03-26T06:14:09.012Z,57.08
2023-03-26T06:16:40.207Z,55.69
2023-03-26T06:19:22.181Z,53.85
2023-03-26T06:22:07.071Z,52.27
2023-03-26T06:24:54.034Z,51.48
2023-03-26T06:27:33.647Z,51.80
2023-03-26T06:30:37.283Z,50.52
2023-03-26T06:33:23.427Z,50.58
2023-03-26T06:35:52.842Z,50.79
2023-03-26T06:38:21.617Z,50.42
2023-03-26T06:40:51.212Z,48.88
2023-03-26T06:43:33.748Z,48.23
2023-03-26T06:46:38.264Z,48.38
2023-03-26T06:49:25.466Z,48.36
2023-03-26T06:52:19.000Z,49.23
2023-03-26T06:54:52.869Z,49.25
2023-03-26T06:57:58.285Z,49.59
2023-03-26T07:00:54.622Z,49.49
2023-03-26T07:03:41.749Z,49.78
2023-03-26T07:06:36.032Z,48.76
2023-03-26T07:09:23.467Z,48.05
2023-03-26T07:12:17.034Z,49.40
2023-03-26T07:14:51.187Z,49.80
2023-03-26T07:17:38.263Z,51.01
2023-03-26T07:20:23.284Z,51.23
2023-03-26T07:22:52.339Z,51.47
2023-03-26T07:25:43.560Z,53.04
2023-03-26T07:28:39.681Z,55.12
2023-03-26T07:31:27.514Z,56.10
2023-03-26T07:34:27.009Z,55.40
2023-03-26T07:37:17.662Z,56.49
2023-03-26T07:40:27.792Z,57.99
2023-03-26T07:43:23.295Z,58.16
2023-03-26T07:46:17.691Z,57.01
2023-03-26T07:49:14.417Z,56.64
2023-03-26T07:51:58.968Z,56.47
2023-03-26T07:54:56.343Z,56.96
2023-03-26T07:57:47.603Z,56.07
2023-03-26T08:00:35.424Z,55.95
2023-03-26T08:03:18.383Z,55.98
2023-03-26T08:06:24.103Z,56.39
2023-03-26T08:09:09.801Z,57.78
2023-03-26T08:11:58.692Z,59.37
2023-03-26T08:14:49.875Z,60.50
2023-03-26T08:17:24.098Z,61.20
2023-03-26T08:20:13.159Z,61.86
2023-03-26T08:22:41.940Z,62.17
2023-03-26T08:25:35.171Z,62.64
2023-03-26T08:28:11.294Z,60.91
2023-03-26T08:30:40.621Z,60.23
2023-03-26T08:33:11.887Z,60.09
2023-03-26T08:35:43.227Z,59.90
2023-03-26T08:38:13.450Z,59.43
2023-03-26T08:40:51.358Z,58.31
2023-03-26T08:43:40.718Z,57.29
2023-03-26T08:46:20.965Z,57.02
2023-03-26T08:49:18.923Z,56.94
2023-03-26T08:52:17.048Z,57.52
2023-03-26T08:54:48.677Z,58.15
2023-03-26T08:57:23.543Z,58.40
2023-03-26T09:00:13.696Z,58.14
2023-03-26T09:03:10.994Z,57.18
2023-03-26T09:06:13.479Z,57.22
2023-03-26T09:09:05.260Z,57.60
2023-03-26T09:12:18.619Z,58.55
2023-03-26T09:14:59.078Z,59.06
2023-03-26T09:17:46.059Z,57.70
2023-03-26T09:20:36.528Z,57.24
2023-03-26T09:23:15.188Z,57.36
2023-03-26T09:26:05.588Z,57.87
2023-03-26T09:28:58.182Z,58.08
2023-03-26T09:31:51.619Z,58.87
2023-03-26T09:34:23.809Z,59.08
2023-03-26T09:37:29.128Z,59.16
2023-03-26T09:40:15.378Z,59.13
2023-03-26T09:42:53.812Z,60.33
2023-03-26T09:45:31.065Z,60.77
2023-03-26T09:48:05.736Z,60.06
2023-03-26T09:50:41.563Z,59.78
2023-03-26T09:53:18.980Z,59.98
2023-03-26T09:55:53.558Z,60.07
2023-03-26T09:59:00.402Z,60.05
2023-03-26T10:01:54.953Z,60.66
2023-03-26T10:04:27.555Z,61.42
2023-03-26T10:07:18.140Z,61.99
2023-03-26T10:10:20.049Z,62.88
2023-03-26T10:13:26.334Z,61.96
2023-03-26T10:16:02.461Z,61.32
2023-03-26T10:18:49.006Z,61.27
2023-03-26T10:21:32.460Z,61.36
2023-03-26T10:24:19.403Z,61.08
2023-03-26T10:27:10.103Z,60.91
2023-03-26T10:30:08.156Z,60.49
2023-03-26T10:32:47.239Z,59.66
2023-03-26T10:35:37.539Z,59.44
2023-03-26T10:38:24.131Z,59.22
2023-03-26T10:40:59.910Z,58.46
2023-03-26T10:43:49.774Z,58.49
2023-03-26T10:46:44.628Z,59.03
2023-03-26T10:49:33.236Z,58.84
2023-03-26T10:52:16.644Z,57.99
2023-03-26T10:55:08.278Z,56.63
2023-03-26T10:57:41.408Z,55.35
2023-03-26T11:00:26.592Z,54.53
2023-03-26T11:03:04.907Z,53.98
2023-03-26T11:05:56.367Z,54.15
2023-03-26T11:08:35.568Z,54.09
2023-03-26T11:11:24.997Z,53.23
2023-03-26T11:14:35.396Z,52.66
2023-03-26T11:17:39.384Z,53.04
2023-03-26T11:20:35.826Z,54.03
2023-03-26T11:23:18.653Z,54.38
2023-03-26T11:26:05.456Z,54.14
2023-03-26T11:28:39.141Z,53.98
2023-03-26T11:31:20.051Z,53.74
2023-03-26T11:33:52.739Z,53.34
2023-03-26T11:36:24.129Z,52.70
2023-03-26T11:38:54.202Z,51.87
2023-03-26T11:41:28.827Z,51.29
2023-03-26T11:44:11.089Z,51.13
2023-03-26T11:46:43.783Z,51.17
2023-03-26T11:49:13.094Z,51.22
2023-03-26T11:51:42.152Z,50.68
2023-03-26T11:54:12.025Z,50.38
2023-03-26T11:57:07.245Z,49.47
2023-03-26T11:59:49.060Z,48.50
2023-03-26T12:02:32.846Z,47.95
2023-03-26T12:05:29.720Z,47.73
2023-03-26T12:07:59.909Z,46.17
2023-03-26T12:10:37.983Z,45.76
2023-03-26T12:13:21.265Z,45.30
2023-03-26T12:15:51.314Z,44.86
2023-03-26T12:18:26.178Z,45.06
2023-03-26T12:21:08.493Z,47.19
2023-03-26T12:23:58.464Z,49.27
2023-03-26T12:26:45.047Z,50.81
2023-03-26T12:29:15.656Z,51.91
2023-03-26T12:31:49.939Z,51.13
2023-03-26T12:34:23.180Z,51.15
2023-03-26T12:36:55.634Z,50.20
2023-03-26T12:40:09.044Z,50.46
2023-03-26T12:44:48.007Z,50.58
2023-03-26T12:45:16.491Z,49.24
2023-03-26T12:48:00.766Z,48.73
2023-03-26T12:50:43.414Z,48.09
2023-03-26T12:53:33.404Z,47.83
2023-03-26T12:56:27.337Z,47.90
2023-03-26T12:59:15.989Z,47.70
2023-03-26T13:02:02.924Z,48.77
2023-03-26T13:04:54.949Z,49.17
2023-03-26T13:07:52.284Z,50.14
2023-03-26T13:10:33.606Z,51.01
2023-03-26T13:13:10.422Z,51.13
2023-03-26T13:15:50.710Z,51.59
2023-03-26T13:18:28.468Z,51.58
2023-03-26T13:21:09.241Z,50.84
2023-03-26T13:24:07.405Z,48.84
2023-03-26T13:27:11.219Z,48.48
2023-03-26T13:29:56.896Z,48.86
2023-03-26T13:32:40.059Z,48.95
2023-03-26T13:35:23.910Z,48.78
2023-03-26T13:38:11.333Z,49.57
2023-03-26T13:40:57.714Z,50.04
2023-03-26T13:43:26.704Z,50.19
2023-03-26T13:45:59.340Z,49.92
2023-03-26T13:48:30.566Z,50.08
2023-03-26T13:51:03.084Z,50.30
2023-03-26T13:53:37.174Z,50.45
2023-03-26T13:56:06.884Z,50.97
2023-03-26T13:58:59.725Z,51.04
2023-03-26T14:01:41.220Z,50.62
2023-03-26T14:04:23.638Z,51.15
2023-03-26T14:07:06.462Z,51.11
2023-03-26T14:09:37.002Z,50.57
2023-03-26T14:12:21.159Z,50.75
2023-03-26T14:14:55.916Z,51.37
2023-03-26T14:17:31.299Z,52.88
2023-03-26T14:20:21.263Z,53.61
2023-03-26T14:23:10.085Z,55.70
2023-03-26T14:26:09.442Z,56.31
2023-03-26T14:29:02.580Z,55.65
2023-03-26T14:31:52.925Z,55.64
2023-03-26T14:34:36.194Z,56.35
2023-03-26T14:37:27.866Z,56.58
2023-03-26T14:40:18.499Z,57.17
2023-03-26T14:43:18.045Z,57.95
2023-03-26T14:46:04.069Z,58.32
2023-03-26T14:49:11.685Z,57.93
2023-03-26T14:51:43.145Z,57.87
2023-03-26T14:54:20.250Z,57.14
2023-03-26T14:57:00.870Z,56.74
2023-03-26T14:59:51.312Z,55.89
2023-03-26T15:02:22.617Z,54.81
2023-03-26T15:04:54.024Z,54.40
2023-03-26T15:07:59.962Z,53.47
2023-03-26T15:10:47.427Z,53.24
2023-03-26T15:13:32.334Z,53.16
2023-03-26T15:16:08.561Z,53.06
2023-03-26T15:18:49.319Z,53.52
2023-03-26T15:21:33.838Z,53.67
2023-03-26T15:24:12.499Z,54.40
2023-03-26T15:27:21.374Z,54.62
2023-03-26T15:30:16.146Z,54.82
2023-03-26T15:33:05.442Z,54.84
2023-03-26T15:35:43.653Z,54.63
2023-03-26T15:38:21.029Z,54.53
2023-03-26T15:40:54.585Z,54.57
2023-03-26T15:43:22.944Z,54.69
2023-03-26T15:46:10.061Z,54.83
2023-03-26T15:49:12.657Z,54.87
2023-03-26T15:51:46.493Z,55.21
2023-03-26T15:54:54.195Z,55.48
2023-03-26T15:57:27.602Z,55.42
2023-03-26T16:00:15.413Z,55.37
2023-03-26T16:02:58.355Z,55.48
2023-03-26T16:05:34.435Z,55.47
2023-03-26T16:08:38.776Z,55.49
2023-03-26T16:11:14.848Z,55.55
2023-03-26T16:13:48.406Z,55.26
2023-03-26T16:16:16.514Z,54.95
2023-03-26T16:18:58.817Z,54.55
2023-03-26T16:21:32.823Z,54.34
2023-03-26T16:24:08.221Z,53.80
2023-03-26T16:26:40.711Z,53.79
2023-03-26T16:29:15.239Z,53.88
2023-03-26T16:32:18.473Z,53.88
2023-03-26T16:35:02.111Z,54.84
2023-03-26T16:37:37.584Z,54.88
2023-03-26T16:40:18.223Z,54.84
2023-03-26T16:43:11.412Z,55.04
2023-03-26T16:45:56.518Z,55.14
2023-03-26T16:49:01.083Z,54.81
2023-03-26T16:51:57.536Z,54.51
2023-03-26T16:54:56.645Z,54.32
2023-03-26T16:57:30.665Z,54.37
2023-03-26T17:00:16.662Z,54.40
2023-03-26T17:02:52.336Z,54.41
2023-03-26T17:05:45.425Z,54.56
2023-03-26T17:08:35.619Z,54.74
2023-03-26T17:11:29.494Z,54.66
2023-03-26T17:14:24.316Z,54.73
2023-03-26T17:17:29.780Z,55.13
2023-03-26T17:19:58.260Z,55.58
2023-03-26T17:22:54.080Z,55.91
2023-03-26T17:25:54.566Z,56.28
2023-03-26T17:29:00.401Z,56.34
2023-03-26T17:31:40.417Z,56.53
2023-03-26T17:34:46.767Z,56.76
2023-03-26T17:37:23.993Z,57.29
2023-03-26T17:40:02.829Z,57.77
2023-03-26T17:42:36.108Z,58.14
2023-03-26T17:45:25.243Z,58.33
2023-03-26T17:47:58.992Z,58.43
2023-03-26T17:50:32.222Z,58.57
2023-03-26T17:53:05.694Z,58.48
2023-03-26T17:55:36.612Z,58.40
2023-03-26T17:58:08.604Z,58.58
2023-03-26T18:00:43.803Z,58.76
2023-03-26T18:03:31.257Z,58.91
2023-03-26T18:06:08.471Z,59.14
2023-03-26T18:09:01.396Z,59.30
2023-03-26T18:11:59.395Z,60.03
2023-03-26T18:15:12.698Z,60.53
2023-03-26T18:17:43.366Z,60.85
2023-03-26T18:20:23.434Z,61.28
2023-03-26T18:22:52.012Z,61.36
2023-03-26T18:25:23.840Z,61.69
2023-03-26T18:27:51.996Z,61.97
2023-03-26T18:30:23.714Z,62.00
2023-03-26T18:33:01.733Z,62.20
2023-03-26T18:35:54.445Z,62.84
2023-03-26T18:38:36.093Z,63.44
2023-03-26T18:41:08.484Z,63.74
2023-03-26T18:43:44.207Z,63.93
2023-03-26T18:46:14.058Z,64.45
2023-03-26T18:48:44.217Z,64.92
2023-03-26T18:51:12.364Z,65.12
2023-03-26T18:53:45.847Z,65.19
2023-03-26T18:56:35.614Z,65.31
2023-03-26T18:59:28.325Z,65.54
2023-03-26T19:01:59.563Z,65.29
2023-03-26T19:04:30.872Z,65.51
2023-03-26T19:07:01.749Z,65.60
2023-03-26T19:09:32.410Z,65.77
2023-03-26T19:12:06.603Z,66.07
2023-03-26T19:14:37.313Z,66.06
2023-03-26T19:17:05.638Z,66.00
2023-03-26T19:19:39.312Z,66.49
2023-03-26T19:22:09.618Z,66.73
2023-03-26T19:24:37.735Z,66.81
2023-03-26T19:27:08.314Z,67.22
2023-03-26T19:29:36.646Z,67.30
2023-03-26T19:32:35.088Z,67.36
2023-03-26T19:35:04.694Z,67.51
2023-03-26T19:37:33.774Z,67.44
2023-03-26T19:40:14.269Z,67.05
2023-03-26T19:42:43.927Z,67.41
2023-03-26T19:45:20.299Z,67.16
2023-03-26T19:47:57.370Z,67.17
2023-03-26T19:50:33.663Z,66.49
2023-03-26T19:53:22.168Z,66.56
2023-03-26T19:56:18.736Z,66.32
2023-03-26T19:58:46.719Z,66.17
2023-03-26T20:01:18.296Z,66.03
2023-03-26T20:03:49.319Z,66.04
2023-03-26T20:06:19.455Z,66.08
2023-03-26T20:08:52.176Z,65.76
2023-03-26T20:11:28.629Z,65.69
2023-03-26T20:14:01.783Z,65.46
2023-03-26T20:16:31.935Z,65.56
2023-03-26T20:19:04.244Z,65.53
2023-03-26T20:21:38.426Z,65.15
2023-03-26T20:24:15.054Z,64.82
2023-03-26T20:26:43.960Z,64.80
2023-03-26T20:29:13.093Z,64.82
2023-03-26T20:31:44.065Z,64.76
2023-03-26T20:34:16.445Z,64.90
2023-03-26T20:36:45.809Z,64.80
2023-03-26T20:39:14.260Z,64.85
2023-03-26T20:41:47.960Z,64.74
2023-03-26T20:44:20.265Z,64.86
2023-03-26T20:46:49.312Z,64.67
2023-03-26T20:49:18.542Z,64.61
2023-03-26T20:51:47.840Z,64.72
2023-03-26T20:54:21.362Z,64.62
2023-03-26T20:56:51.206Z,64.71
2023-03-26T20:59:22.353Z,64.73
2023-03-26T21:01:51.321Z,64.64
2023-03-26T21:04:20.006Z,64.51
2023-03-26T21:06:48.348Z,64.36
2023-03-26T21:09:18.854Z,64.90
2023-03-26T21:12:05.170Z,64.80
2023-03-26T21:14:43.601Z,64.97
2023-03-26T21:17:16.176Z,64.61
2023-03-26T21:19:45.883Z,64.69
2023-03-26T21:22:17.524Z,64.53
2023-03-26T21:25:10.513Z,65.02
2023-03-26T21:27:48.073Z,64.93
2023-03-26T21:30:16.872Z,65.48
2023-03-26T21:32:46.372Z,65.65
2023-03-26T21:35:19.965Z,65.89
2023-03-26T21:37:48.949Z,66.00
2023-03-26T21:40:18.346Z,65.99
2023-03-26T21:42:52.134Z,66.28
2023-03-26T21:45:21.249Z,66.26
2023-03-26T21:47:52.802Z,66.56
2023-03-26T21:50:23.585Z,66.70
2023-03-26T21:52:52.241Z,66.91
2023-03-26T21:55:22.169Z,67.13
2023-03-26T21:57:54.227Z,67.43
2023-03-26T22:00:33.589Z,67.46
2023-03-26T22:03:18.840Z,66.97
2023-03-26T22:05:57.672Z,67.19
2023-03-26T22:08:36.833Z,67.11
2023-03-26T22:11:06.720Z,67.24
2023-03-26T22:13:38.832Z,67.44
2023-03-26T22:16:08.637Z,67.15
2023-03-26T22:18:38.689Z,67.08
2023-03-26T22:21:07.231Z,67.38
2023-03-26T22:23:38.479Z,67.32
2023-03-26T22:26:07.298Z,67.26
2023-03-26T22:28:38.395Z,67.52
2023-03-26T22:31:09.220Z,67.53
2023-03-26T22:33:40.101Z,67.65
2023-03-26T22:36:22.895Z,67.76
2023-03-26T22:38:54.123Z,67.89
2023-03-26T22:41:25.236Z,68.21
2023-03-26T22:43:54.791Z,68.51
2023-03-26T22:46:25.229Z,69.06
2023-03-26T22:48:54.816Z,69.13
2023-03-26T22:51:30.582Z,69.20
2023-03-26T22:53:59.572Z,69.40
2023-03-26T22:56:27.837Z,69.01
2023-03-26T22:58:55.887Z,68.73
2023-03-26T23:01:24.190Z,68.55
2023-03-26T23:03:52.400Z,68.69
2023-03-26T23:06:21.717Z,68.65
2023-03-26T23:08:50.143Z,68.54
2023-03-26T23:11:19.670Z,68.69
2023-03-26T23:13:48.022Z,68.67
2023-03-26T23:16:16.632Z,68.67
2023-03-26T23:18:46.665Z,69.04
2023-03-26T23:21:16.344Z,69.89
2023-03-26T23:23:44.502Z,70.24
2023-03-26T23:26:14.579Z,70.23
2023-03-26T23:28:43.439Z,70.24
2023-03-26T23:31:12.580Z,70.29
2023-03-26T23:33:47.721Z,70.50
2023-03-26T23:36:18.323Z,70.55
2023-03-26T23:38:47.773Z,70.58
2023-03-26T23:41:18.829Z,70.85
2023-03-26T23:43:53.314Z,71.01
2023-03-26T23:46:30.488Z,71.38
2023-03-26T23:49:05.484Z,71.38
2023-03-26T23:51:36.154Z,71.45
2023-03-26T23:54:05.231Z,71.37
2023-03-26T23:56:40.484Z,71.37
2023-03-26T23:59:10.494Z,71.71
